Time;durP1;ratioP1;P1;durP2;ratioP2;P2;SDS_P1;SDS_P2;PMS_P1;PMS_P2;Temp;Humidity;BMP_temperature;BMP_pressure;BME280_temperature;BME280_humidity;BME280_pressure;Samples;Min_cycle;Max_cycle;Signal;HPM_P1;HPM_P2
2021/06/10 00:00:24;;;;;;;1.90;1.50;;;;;;;30.80;23.28;98401.13;5059865;28;20055;-87
2021/06/10 00:02:54;;;;;;;4.03;1.30;;;;;;;30.62;23.32;98399.03;5059685;28;20400;-87
2021/06/10 00:05:21;;;;;;;1.90;1.17;;;;;;;30.81;23.28;98399.84;5061140;28;20029;-87
2021/06/10 00:07:48;;;;;;;1.85;1.23;;;;;;;30.76;23.20;98404.09;5064855;28;20036;-87
2021/06/10 00:10:16;;;;;;;2.88;1.80;;;;;;;30.41;23.68;98404.88;5059290;28;20488;-87
2021/06/10 00:12:43;;;;;;;1.73;1.25;;;;;;;30.46;23.82;98401.38;5062912;28;20094;-88
2021/06/10 00:15:13;;;;;;;3.70;1.60;;;;;;;30.65;22.99;98400.16;5055332;28;20036;-87
2021/06/10 00:17:39;;;;;;;2.25;1.50;;;;;;;30.77;22.77;98396.38;5063618;28;20029;-87
2021/06/10 00:20:07;;;;;;;1.98;1.50;;;;;;;30.79;23.22;98402.38;5059540;28;20052;-86
2021/06/10 00:22:34;;;;;;;3.42;1.23;;;;;;;30.65;23.09;98403.00;5057179;28;20492;-87
2021/06/10 00:25:00;;;;;;;3.00;1.33;;;;;;;30.69;23.64;98401.56;5063608;28;20495;-87
2021/06/10 00:27:26;;;;;;;2.20;1.25;;;;;;;30.46;22.99;98404.22;5065853;28;20038;-87
2021/06/10 00:29:53;;;;;;;1.17;0.98;;;;;;;30.54;23.24;98406.31;5058234;28;20032;-87
2021/06/10 00:32:19;;;;;;;2.30;1.38;;;;;;;30.61;23.22;98403.16;5059868;28;20036;-87
2021/06/10 00:34:45;;;;;;;1.88;1.45;;;;;;;30.55;23.30;98396.53;5062560;28;20133;-86
2021/06/10 00:37:13;;;;;;;1.33;1.00;;;;;;;30.44;23.54;98399.03;5060381;28;20037;-87
2021/06/10 00:39:40;;;;;;;2.67;1.33;;;;;;;30.45;23.33;98394.16;5064561;28;20110;-87
2021/06/10 00:42:08;;;;;;;3.88;1.40;;;;;;;30.33;23.27;98393.03;5064097;28;20038;-87
2021/06/10 00:44:35;;;;;;;2.05;1.25;;;;;;;30.35;23.09;98393.34;5061054;28;20033;-87
2021/06/10 00:47:01;;;;;;;1.63;1.10;;;;;;;30.46;22.60;98390.84;5058680;28;20036;-86
2021/06/10 00:49:28;;;;;;;1.52;1.23;;;;;;;30.50;23.26;98385.81;5069147;28;20032;-86
2021/06/10 00:51:54;;;;;;;1.85;1.13;;;;;;;30.51;22.80;98387.38;5057483;28;20033;-87
2021/06/10 00:54:21;;;;;;;2.40;1.20;;;;;;;30.50;23.12;98377.31;5067020;28;20086;-87
2021/06/10 00:56:48;;;;;;;3.60;1.00;;;;;;;29.75;23.51;98387.31;5058186;28;20037;-87
2021/06/10 00:59:14;;;;;;;1.58;1.10;;;;;;;29.62;23.81;98385.81;5056345;28;20059;-86
2021/06/10 01:01:40;;;;;;;2.28;1.27;;;;;;;29.92;23.49;98382.97;5057801;28;20032;-87
2021/06/10 01:04:06;;;;;;;2.22;1.65;;;;;;;29.65;23.46;98379.22;5063368;28;20036;-86
2021/06/10 01:07:02;;;;;;;1.50;1.40;;;;;;;29.28;24.31;98381.88;5061118;28;20039;-86
2021/06/10 01:09:51;;;;;;;1.95;1.33;;;;;;;29.73;23.23;98380.53;5059381;28;20033;-87
2021/06/10 01:12:43;;;;;;;1.63;1.10;;;;;;;29.94;23.51;98383.28;5063914;28;20025;-86
2021/06/10 01:15:12;;;;;;;1.27;1.08;;;;;;;29.92;23.35;98382.22;5059415;28;20039;-86
2021/06/10 01:17:46;;;;;;;1.30;0.90;;;;;;;29.97;22.89;98381.56;5057434;28;20037;-86
2021/06/10 01:20:21;;;;;;;1.40;1.02;;;;;;;29.55;23.11;98380.44;5059174;28;20051;-86
2021/06/10 01:22:57;;;;;;;1.30;1.02;;;;;;;29.49;23.45;98383.09;5055774;28;20025;-86
2021/06/10 01:25:51;;;;;;;2.63;1.52;;;;;;;29.70;23.83;98372.97;5056514;28;20435;-86
2021/06/10 01:28:25;;;;;;;1.05;0.88;;;;;;;29.33;23.69;98372.81;5063031;28;20041;-86
2021/06/10 01:31:00;;;;;;;1.08;0.98;;;;;;;29.30;23.71;98370.09;5063609;28;20564;-86
2021/06/10 01:33:50;;;;;;;1.15;0.88;;;;;;;29.47;23.72;98371.44;5064872;28;20140;-86
2021/06/10 01:36:33;;;;;;;2.67;1.10;;;;;;;29.63;22.98;98365.56;5063647;28;20090;-86
2021/06/10 01:39:21;;;;;;;1.27;0.93;;;;;;;29.20;23.83;98372.06;5054253;28;20040;-87
2021/06/10 01:41:47;;;;;;;2.80;1.15;;;;;;;29.39;23.82;98368.09;5066103;28;20040;-86
2021/06/10 01:44:15;;;;;;;1.70;0.93;;;;;;;29.20;23.96;98362.78;5069327;28;20028;-86
2021/06/10 01:46:41;;;;;;;1.40;0.90;;;;;;;29.41;23.33;98373.28;5054323;28;20028;-86
2021/06/10 01:49:11;;;;;;;2.45;1.23;;;;;;;29.53;23.51;98363.94;5059163;28;20044;-85
2021/06/10 01:51:39;;;;;;;1.50;1.00;;;;;;;29.71;23.18;98366.06;5055083;28;20119;-86
2021/06/10 01:54:06;;;;;;;1.30;1.17;;;;;;;29.68;23.28;98370.59;5055177;28;20028;-86
2021/06/10 01:56:35;;;;;;;1.00;0.90;;;;;;;29.55;22.94;98372.72;5060695;28;20021;-86
2021/06/10 01:59:02;;;;;;;1.15;0.85;;;;;;;29.50;22.86;98370.50;5057577;28;20033;-86
2021/06/10 02:01:30;;;;;;;1.38;0.90;;;;;;;29.55;22.94;98374.78;5057649;28;20120;-86
2021/06/10 02:03:58;;;;;;;1.95;1.00;;;;;;;29.49;23.03;98368.16;5058207;28;20477;-86
2021/06/10 02:06:26;;;;;;;1.35;1.00;;;;;;;29.11;23.48;98372.00;5062739;28;20044;-86
2021/06/10 02:08:54;;;;;;;1.33;1.23;;;;;;;29.25;23.20;98374.31;5057967;28;20043;-86
2021/06/10 02:11:20;;;;;;;1.10;1.00;;;;;;;29.51;22.91;98374.91;5064836;28;20029;-87
2021/06/10 02:13:49;;;;;;;1.40;1.17;;;;;;;29.42;23.52;98372.84;5059258;28;20052;-86
2021/06/10 02:16:17;;;;;;;1.05;0.80;;;;;;;29.36;23.28;98377.50;5063100;28;20078;-86
2021/06/10 02:18:46;;;;;;;1.42;1.10;;;;;;;29.55;22.91;98380.44;5057148;28;20405;-86
2021/06/10 02:21:13;;;;;;;0.95;0.85;;;;;;;29.38;23.54;98375.00;5064200;28;20039;-86
2021/06/10 02:23:41;;;;;;;1.83;1.30;;;;;;;29.50;23.51;98387.47;5052953;28;20037;-86
2021/06/10 02:26:08;;;;;;;1.95;1.05;;;;;;;29.03;23.45;98390.50;5062388;28;20028;-86
2021/06/10 02:28:36;;;;;;;1.08;0.98;;;;;;;29.04;23.22;98386.41;5058574;28;20033;-86
2021/06/10 02:31:04;;;;;;;1.67;0.95;;;;;;;29.12;23.38;98379.25;5059323;28;20029;-86
2021/06/10 02:33:31;;;;;;;1.90;1.40;;;;;;;28.88;23.98;98380.94;5056188;28;20132;-86
2021/06/10 02:35:57;;;;;;;2.00;0.90;;;;;;;29.12;23.57;98378.44;5055749;28;20040;-86
2021/06/10 02:38:26;;;;;;;1.35;0.80;;;;;;;29.59;23.22;98386.75;5063848;28;20035;-87
2021/06/10 02:40:55;;;;;;;1.30;1.00;;;;;;;29.63;22.62;98387.41;5060396;28;20039;-86
2021/06/10 02:43:21;;;;;;;1.30;0.82;;;;;;;29.79;22.53;98390.00;5061281;28;20385;-86
2021/06/10 02:45:49;;;;;;;1.30;1.00;;;;;;;29.90;22.42;98396.03;5068641;28;20060;-86
2021/06/10 02:48:16;;;;;;;1.38;1.05;;;;;;;29.83;22.29;98388.59;5056976;28;20021;-86
2021/06/10 02:50:45;;;;;;;1.20;1.02;;;;;;;29.83;22.85;98396.31;5062444;28;20059;-86
2021/06/10 02:53:16;;;;;;;1.40;1.30;;;;;;;29.89;22.49;98400.91;5065221;28;20062;-86
2021/06/10 02:55:45;;;;;;;1.00;0.90;;;;;;;30.06;22.57;98396.56;5068632;28;20032;-86
2021/06/10 02:58:16;;;;;;;1.00;0.88;;;;;;;29.61;22.62;98398.41;5066862;28;20533;-86
2021/06/10 03:00:44;;;;;;;2.08;1.15;;;;;;;29.63;22.54;98401.53;5062857;28;20475;-86
2021/06/10 03:03:13;;;;;;;1.50;0.90;;;;;;;29.42;22.98;98397.50;5065433;28;20025;-86
2021/06/10 03:05:40;;;;;;;2.05;1.05;;;;;;;29.65;22.67;98401.88;5068635;28;20484;-86
2021/06/10 03:08:10;;;;;;;1.90;1.10;;;;;;;29.98;22.53;98397.31;5066744;28;20040;-86
2021/06/10 03:10:37;;;;;;;3.40;1.27;;;;;;;29.70;22.58;98398.44;5071381;28;20036;-86
2021/06/10 03:13:04;;;;;;;1.88;1.10;;;;;;;29.93;22.18;98398.72;5064574;28;20025;-86
2021/06/10 03:15:32;;;;;;;1.67;0.93;;;;;;;30.18;22.12;98394.84;5062469;28;20469;-86
2021/06/10 03:17:59;;;;;;;1.17;1.08;;;;;;;30.40;22.04;98394.78;5062354;28;20028;-86
2021/06/10 03:20:25;;;;;;;1.30;1.08;;;;;;;30.56;21.82;98398.09;5061992;28;20134;-86
2021/06/10 03:22:53;;;;;;;1.30;0.95;;;;;;;30.82;21.54;98406.31;5062318;28;20511;-86
2021/06/10 03:25:21;;;;;;;1.25;1.10;;;;;;;30.18;21.87;98408.25;5062957;28;20039;-86
2021/06/10 03:27:47;;;;;;;1.42;1.10;;;;;;;30.09;21.67;98411.81;5059589;28;20048;-86
2021/06/10 03:30:14;;;;;;;1.35;1.05;;;;;;;30.40;21.19;98409.75;5061795;28;20037;-86
2021/06/10 03:32:40;;;;;;;1.08;0.95;;;;;;;30.54;21.66;98411.97;5064190;28;20078;-87
2021/06/10 03:35:09;;;;;;;1.15;1.13;;;;;;;30.81;22.79;98407.59;5063327;28;20073;-86
2021/06/10 03:37:36;;;;;;;1.80;1.30;;;;;;;30.75;23.47;98416.72;5063851;28;20032;-86
2021/06/10 03:40:05;;;;;;;1.88;1.70;;;;;;;30.96;23.74;98414.22;5064756;28;20115;-86
2021/06/10 03:42:31;;;;;;;2.53;1.90;;;;;;;31.03;23.57;98413.88;5064740;28;20116;-86
2021/06/10 03:44:58;;;;;;;1.58;1.48;;;;;;;30.88;22.05;98416.56;5072114;28;20025;-87
2021/06/10 03:47:25;;;;;;;1.85;1.55;;;;;;;30.61;22.66;98422.19;5065503;28;20017;-86
2021/06/10 03:49:51;;;;;;;1.90;1.55;;;;;;;30.64;22.67;98419.19;5059985;28;20066;-86
2021/06/10 03:52:17;;;;;;;1.77;1.55;;;;;;;30.96;22.30;98414.22;5060071;28;20396;-86
2021/06/10 03:54:43;;;;;;;1.50;1.40;;;;;;;30.92;22.00;98422.09;5067517;28;20101;-87
2021/06/10 03:57:10;;;;;;;2.33;1.60;;;;;;;30.62;22.43;98418.13;5062549;28;20021;-86
2021/06/10 03:59:36;;;;;;;1.90;1.45;;;;;;;30.55;23.04;98413.53;5061543;28;20037;-87
2021/06/10 04:02:03;;;;;;;2.03;1.35;;;;;;;30.94;22.85;98411.06;5060136;28;20094;-86
2021/06/10 04:04:29;;;;;;;2.15;1.15;;;;;;;31.08;22.56;98410.44;5067334;28;20043;-86
2021/06/10 04:06:57;;;;;;;2.13;1.60;;;;;;;31.53;22.66;98413.19;5058982;28;20032;-86
2021/06/10 04:09:23;;;;;;;1.77;1.67;;;;;;;31.72;23.58;98420.41;5065570;28;20395;-87
2021/06/10 04:11:49;;;;;;;2.25;1.90;;;;;;;31.93;22.84;98418.56;5057927;28;20373;-86
2021/06/10 04:14:16;;;;;;;1.63;1.52;;;;;;;32.30;22.85;98414.31;5064502;28;20115;-87
2021/06/10 04:16:42;;;;;;;2.13;1.98;;;;;;;32.56;22.46;98415.44;5062366;28;20051;-87
2021/06/10 04:19:09;;;;;;;2.60;2.08;;;;;;;32.39;22.52;98416.34;5065687;28;20048;-87
2021/06/10 04:21:35;;;;;;;4.55;1.30;;;;;;;32.66;22.71;98414.13;5065042;28;20037;-87
2021/06/10 04:24:02;;;;;;;2.17;1.77;;;;;;;33.01;21.90;98416.34;5061444;28;20029;-84
2021/06/10 04:26:28;;;;;;;2.17;1.92;;;;;;;33.11;22.51;98404.44;5072276;28;20029;-84
2021/06/10 04:28:54;;;;;;;4.00;1.65;;;;;;;33.21;22.36;98420.16;5063502;28;20029;-84
2021/06/10 04:31:21;;;;;;;1.92;1.67;;;;;;;33.10;22.76;98411.41;5069761;28;20430;-84
2021/06/10 04:33:48;;;;;;;2.95;1.45;;;;;;;33.23;22.92;98422.53;5062180;28;20043;-84
2021/06/10 04:36:14;;;;;;;1.75;1.60;;;;;;;33.57;22.87;98418.25;5058720;28;20043;-84
2021/06/10 04:38:41;;;;;;;1.75;1.65;;;;;;;34.11;21.72;98417.63;5057796;28;20079;-85
2021/06/10 04:41:08;;;;;;;1.35;1.25;;;;;;;34.46;21.67;98417.59;5065857;28;20134;-84
2021/06/10 04:43:34;;;;;;;1.33;1.13;;;;;;;34.73;21.23;98415.13;5068872;28;20390;-84
2021/06/10 04:46:01;;;;;;;3.72;1.27;;;;;;;35.16;20.90;98416.19;5060927;28;20467;-84
2021/06/10 04:48:27;;;;;;;1.60;1.20;;;;;;;35.50;20.58;98420.19;5064332;28;20036;-84
2021/06/10 04:50:54;;;;;;;2.47;1.60;;;;;;;35.40;20.12;98413.09;5060706;28;20044;-85
2021/06/10 04:53:21;;;;;;;1.83;1.73;;;;;;;35.02;20.27;98410.59;5068475;28;20468;-84
2021/06/10 04:55:47;;;;;;;2.00;1.50;;;;;;;35.19;21.48;98414.41;5058993;28;20029;-85
2021/06/10 04:58:13;;;;;;;2.13;1.23;;;;;;;35.58;21.26;98420.53;5067161;28;20032;-85
2021/06/10 05:00:39;;;;;;;1.55;1.17;;;;;;;35.70;20.66;98416.50;5069179;28;20029;-85
2021/06/10 05:03:06;;;;;;;2.33;1.40;;;;;;;35.55;20.55;98410.91;5057944;28;20035;-84
2021/06/10 05:05:33;;;;;;;3.67;1.80;;;;;;;35.71;20.54;98406.66;5060173;28;20059;-85
2021/06/10 05:07:59;;;;;;;1.33;1.23;;;;;;;35.96;20.35;98420.88;5059671;28;20029;-84
2021/06/10 05:10:26;;;;;;;1.67;1.05;;;;;;;36.22;20.34;98417.19;5064256;28;20040;-85
2021/06/10 05:12:52;;;;;;;1.13;1.05;;;;;;;36.51;20.27;98419.72;5064675;28;20480;-85
2021/06/10 05:15:18;;;;;;;1.42;1.08;;;;;;;36.67;19.35;98410.44;5063181;28;20086;-89
2021/06/10 05:17:45;;;;;;;1.38;1.05;;;;;;;36.90;19.79;98420.69;5066894;28;20032;-84
2021/06/10 05:20:12;;;;;;;1.20;1.10;;;;;;;36.96;19.35;98420.75;5062126;28;20056;-84
2021/06/10 05:22:38;;;;;;;1.55;0.88;;;;;;;36.82;19.85;98413.91;5058576;28;20060;-83
2021/06/10 05:25:05;;;;;;;3.15;1.42;;;;;;;37.02;19.27;98415.81;5055609;28;20032;-84
2021/06/10 05:27:33;;;;;;;1.40;0.93;;;;;;;37.23;19.60;98411.44;5057089;28;20055;-83
2021/06/10 05:30:03;;;;;;;1.25;1.10;;;;;;;37.26;19.60;98408.34;5066153;28;20032;-84
2021/06/10 05:32:30;;;;;;;1.47;1.07;;;;;;;36.76;19.39;98413.06;5058745;28;20028;-85
2021/06/10 05:34:56;;;;;;;3.15;1.10;;;;;;;36.18;20.24;98413.75;5057623;28;20051;-85
2021/06/10 05:37:22;;;;;;;1.30;1.20;;;;;;;35.89;20.48;98415.63;5066985;28;20128;-83
2021/06/10 05:39:48;;;;;;;1.10;1.00;;;;;;;35.62;19.65;98404.72;5056745;28;20489;-83
2021/06/10 05:42:15;;;;;;;1.73;1.08;;;;;;;35.21;21.08;98406.91;5061233;28;20047;-88
2021/06/10 05:44:42;;;;;;;1.35;1.10;;;;;;;35.08;20.31;98400.03;5058644;28;20025;-84
2021/06/10 05:47:10;;;;;;;1.08;0.90;;;;;;;34.91;20.99;98408.38;5065549;28;20033;-84
2021/06/10 05:49:36;;;;;;;1.08;1.00;;;;;;;34.74;20.54;98405.31;5072105;28;20037;-84
2021/06/10 05:52:03;;;;;;;1.45;1.27;;;;;;;34.79;21.10;98405.88;5072345;28;20040;-84
2021/06/10 05:54:30;;;;;;;1.40;1.00;;;;;;;35.00;21.10;98413.13;5062446;28;20045;-85
2021/06/10 05:56:58;;;;;;;1.10;0.95;;;;;;;35.19;20.38;98400.13;5055629;28;20075;-85
2021/06/10 05:59:25;;;;;;;1.15;1.05;;;;;;;34.49;20.79;98403.16;5070195;28;20032;-85
2021/06/10 06:01:51;;;;;;;2.20;1.33;;;;;;;34.96;21.26;98401.91;5059231;28;20048;-85
2021/06/10 06:04:18;;;;;;;1.45;1.15;;;;;;;34.47;20.96;98402.81;5063513;28;20036;-85
2021/06/10 06:06:45;;;;;;;2.55;1.13;;;;;;;34.62;21.39;98403.59;5072581;28;20369;-85
2021/06/10 06:09:11;;;;;;;1.73;1.30;;;;;;;34.40;21.50;98403.25;5068874;28;20397;-85
2021/06/10 06:11:38;;;;;;;2.60;0.85;;;;;;;34.25;21.11;98407.44;5053702;28;20433;-85
2021/06/10 06:14:08;;;;;;;3.88;1.05;;;;;;;33.60;22.40;98409.50;5058668;28;20024;-85
2021/06/10 06:16:40;;;;;;;2.20;1.10;;;;;;;34.27;21.08;98405.66;5065571;28;20044;-85
2021/06/10 06:19:08;;;;;;;1.52;0.98;;;;;;;34.08;21.42;98410.03;5055406;28;20060;-85
2021/06/10 06:21:35;;;;;;;2.63;1.45;;;;;;;34.41;20.75;98412.59;5065143;28;20039;-84
2021/06/10 06:24:02;;;;;;;2.00;1.00;;;;;;;34.93;19.99;98407.84;5071143;28;20060;-84
2021/06/10 06:26:29;;;;;;;2.03;1.02;;;;;;;35.43;20.28;98409.19;5072155;28;20032;-84
2021/06/10 06:28:59;;;;;;;1.83;1.10;;;;;;;36.29;19.95;98414.66;5073347;28;20427;-84
2021/06/10 06:31:26;;;;;;;1.83;1.10;;;;;;;35.88;18.84;98419.78;5061232;28;20032;-84
2021/06/10 06:33:53;;;;;;;1.45;1.13;;;;;;;35.65;19.09;98411.50;5054136;28;20036;-85
2021/06/10 06:36:19;;;;;;;1.45;0.88;;;;;;;35.57;19.44;98419.75;5072101;28;20530;-84
2021/06/10 06:38:46;;;;;;;4.72;1.27;;;;;;;35.80;18.93;98412.19;5061411;28;20404;-84
2021/06/10 06:41:12;;;;;;;1.80;1.05;;;;;;;36.46;18.69;98415.53;5061721;28;20365;-84
2021/06/10 06:43:39;;;;;;;1.13;1.00;;;;;;;36.70;17.64;98412.28;5064611;28;20122;-84
2021/06/10 06:46:06;;;;;;;3.05;1.08;;;;;;;36.35;17.51;98414.66;5060602;28;20025;-84
2021/06/10 06:48:33;;;;;;;1.20;1.00;;;;;;;36.63;18.17;98412.78;5069115;28;20043;-84
2021/06/10 06:51:00;;;;;;;1.65;1.00;;;;;;;35.79;18.34;98410.59;5064067;28;20020;-85
2021/06/10 06:53:29;;;;;;;1.92;1.15;;;;;;;35.71;18.30;98415.97;5064380;28;20041;-85
2021/06/10 06:55:56;;;;;;;1.85;0.90;;;;;;;35.05;19.78;98421.78;5063660;28;20027;-85
2021/06/10 06:58:22;;;;;;;1.00;0.82;;;;;;;35.54;19.62;98422.84;5066776;28;20027;-84
2021/06/10 07:00:48;;;;;;;2.42;1.02;;;;;;;35.71;19.09;98420.94;5067609;28;20040;-85
2021/06/10 07:03:14;;;;;;;3.28;1.00;;;;;;;35.32;18.97;98415.59;5059596;28;20488;-84
2021/06/10 07:05:40;;;;;;;1.52;1.00;;;;;;;35.59;18.41;98417.19;5060955;28;20086;-84
2021/06/10 07:08:06;;;;;;;0.50;0.50;;;;;;;34.91;17.98;98422.63;5065417;28;20412;-85
2021/06/10 07:10:33;;;;;;;0.90;0.80;;;;;;;34.83;18.75;98415.78;5060855;28;20084;-84
2021/06/10 07:12:59;;;;;;;1.10;0.60;;;;;;;35.10;18.96;98423.16;5061670;28;20020;-84
2021/06/10 07:15:25;;;;;;;1.40;0.90;;;;;;;31.44;23.26;98421.75;5060009;28;20044;-84
2021/06/10 07:17:51;;;;;;;1.77;1.23;;;;;;;30.54;24.17;98420.47;5060876;28;20154;-85
2021/06/10 07:20:17;;;;;;;1.65;0.98;;;;;;;33.16;21.42;98425.75;5065342;28;20523;-84
2021/06/10 07:22:43;;;;;;;1.63;0.80;;;;;;;32.30;21.75;98434.22;5061538;28;20032;-84
2021/06/10 07:25:10;;;;;;;1.63;0.82;;;;;;;34.34;19.77;98436.63;5060713;28;20388;-85
2021/06/10 07:27:37;;;;;;;1.00;0.90;;;;;;;34.03;19.52;98440.03;5067085;28;20116;-84
2021/06/10 07:30:07;;;;;;;1.77;1.20;;;;;;;33.49;20.18;98434.13;5062631;28;20029;-84
2021/06/10 07:32:34;;;;;;;1.83;1.73;;;;;;;32.49;21.90;98444.25;5064587;28;20028;-84
2021/06/10 07:35:00;;;;;;;5.10;1.45;;;;;;;32.16;23.21;98442.66;5061607;28;20086;-84
2021/06/10 07:37:26;;;;;;;2.25;1.20;;;;;;;32.01;23.47;98439.72;5064010;28;20037;-84
2021/06/10 07:39:52;;;;;;;1.20;0.85;;;;;;;33.44;21.55;98433.53;5059641;28;20029;-84
2021/06/10 07:42:18;;;;;;;1.48;0.95;;;;;;;34.71;19.74;98431.97;5062798;28;20056;-84
2021/06/10 07:44:44;;;;;;;0.85;0.80;;;;;;;34.21;19.94;98433.31;5066389;28;20029;-84
2021/06/10 07:47:10;;;;;;;2.38;1.05;;;;;;;35.06;20.58;98428.25;5063287;28;20040;-84
2021/06/10 07:49:38;;;;;;;1.50;1.00;;;;;;;35.19;18.84;98429.47;5065273;28;20033;-84
2021/06/10 07:52:04;;;;;;;1.23;0.90;;;;;;;35.68;19.40;98427.66;5069958;28;20040;-84
2021/06/10 07:54:30;;;;;;;1.67;1.33;;;;;;;35.66;19.02;98433.84;5065316;28;20111;-84
2021/06/10 07:56:56;;;;;;;0.93;0.82;;;;;;;35.22;20.39;98427.66;5067499;28;20045;-84
2021/06/10 07:59:25;;;;;;;1.15;0.90;;;;;;;35.48;19.12;98425.59;5061585;28;20086;-85
2021/06/10 08:01:53;;;;;;;1.23;1.02;;;;;;;36.36;19.01;98424.81;5064257;28;20460;-84
2021/06/10 08:04:19;;;;;;;2.88;0.93;;;;;;;35.59;18.88;98425.75;5071269;28;20412;-83
2021/06/10 08:06:46;;;;;;;1.27;0.90;;;;;;;33.30;20.94;98431.44;5069056;28;20084;-83
2021/06/10 08:09:12;;;;;;;1.30;0.80;;;;;;;33.85;20.66;98439.44;5066381;28;20116;-83
2021/06/10 08:11:40;;;;;;;2.10;1.00;;;;;;;35.16;19.38;98423.97;5068876;28;20115;-84
2021/06/10 08:14:06;;;;;;;1.27;0.80;;;;;;;36.24;18.16;98432.56;5072347;28;20534;-84
2021/06/10 08:16:32;;;;;;;0.60;0.60;;;;;;;35.67;18.78;98426.06;5072315;28;20044;-84
2021/06/10 08:18:58;;;;;;;1.20;0.90;;;;;;;33.97;20.39;98426.94;5070296;28;20074;-84
2021/06/10 08:21:24;;;;;;;2.97;1.00;;;;;;;34.54;20.43;98427.34;5060388;28;20091;-84
2021/06/10 08:23:50;;;;;;;0.80;0.80;;;;;;;34.85;18.75;98440.94;5071362;28;20032;-84
2021/06/10 08:26:16;;;;;;;0.95;0.60;;;;;;;35.04;18.20;98423.06;5072958;28;20028;-84
2021/06/10 08:28:42;;;;;;;0.90;0.50;;;;;;;33.92;19.60;98433.34;5069362;28;20510;-84
2021/06/10 08:31:09;;;;;;;0.50;0.50;;;;;;;32.34;21.19;98434.84;5073091;28;20029;-84
2021/06/10 08:33:36;;;;;;;0.50;0.50;;;;;;;30.95;23.07;98438.19;5064609;28;20041;-84
2021/06/10 08:36:07;;;;;;;0.93;0.40;;;;;;;31.49;22.24;98432.44;5060525;28;20036;-83
2021/06/10 08:38:35;;;;;;;0.47;0.47;;;;;;;32.24;20.94;98438.19;5066737;28;20102;-83
2021/06/10 08:41:03;;;;;;;0.40;0.40;;;;;;;31.22;21.99;98441.00;5069652;28;20032;-83
2021/06/10 08:43:29;;;;;;;0.70;0.60;;;;;;;30.77;22.38;98430.41;5070645;28;20036;-83
2021/06/10 08:46:05;;;;;;;0.65;0.40;;;;;;;30.35;23.38;98438.69;5066425;28;20052;-83
2021/06/10 08:48:33;;;;;;;1.48;0.50;;;;;;;31.38;22.47;98434.97;5068648;28;20079;-83
2021/06/10 08:50:59;;;;;;;1.23;0.60;;;;;;;31.20;22.08;98437.84;5071280;28;20056;-84
2021/06/10 08:53:26;;;;;;;0.55;0.40;;;;;;;31.22;23.43;98441.00;5066944;28;20365;-83
2021/06/10 08:55:56;;;;;;;0.40;0.40;;;;;;;30.95;22.43;98441.00;5063112;28;20033;-83
2021/06/10 08:58:23;;;;;;;0.57;0.57;;;;;;;31.33;22.06;98430.72;5068303;28;20055;-83
2021/06/10 09:00:49;;;;;;;0.50;0.50;;;;;;;32.24;22.23;98441.03;5069270;28;20166;-83
2021/06/10 09:03:22;;;;;;;0.65;0.50;;;;;;;32.61;20.61;98439.59;5057612;28;20494;-84
2021/06/10 09:06:09;;;;;;;0.77;0.55;;;;;;;32.07;21.07;98441.44;5068547;28;20132;-83
2021/06/10 09:08:37;;;;;;;0.73;0.50;;;;;;;32.07;21.21;98443.47;5060309;28;20095;-83
2021/06/10 09:11:12;;;;;;;0.55;0.55;;;;;;;32.56;21.15;98443.88;5063485;28;20040;-83
2021/06/10 09:13:44;;;;;;;1.10;0.40;;;;;;;35.11;17.72;98431.19;5069422;28;20040;-84
2021/06/10 09:16:22;;;;;;;0.45;0.45;;;;;;;35.76;17.19;98435.25;5068709;28;20032;-83
2021/06/10 09:18:56;;;;;;;1.05;0.50;;;;;;;34.12;18.95;98442.00;5068851;28;20120;-84
2021/06/10 09:21:43;;;;;;;0.57;0.40;;;;;;;34.61;18.15;98441.94;5059532;28;20045;-83
2021/06/10 09:24:20;;;;;;;1.48;0.50;;;;;;;33.97;18.99;98447.69;5054322;28;20033;-84
2021/06/10 09:26:56;;;;;;;0.40;0.30;;;;;;;33.21;19.85;98448.59;5062492;28;20029;-84
2021/06/10 09:29:45;;;;;;;1.50;0.40;;;;;;;34.20;18.97;98456.59;5056284;28;20036;-83
2021/06/10 09:32:23;;;;;;;0.47;0.43;;;;;;;35.77;20.37;98459.69;5069128;28;20029;-84
2021/06/10 09:34:52;;;;;;;0.30;0.30;;;;;;;34.39;18.76;98455.09;5070041;28;20044;-84
2021/06/10 09:37:30;;;;;;;1.17;0.60;;;;;;;33.57;19.19;98452.41;5066979;28;20041;-83
2021/06/10 09:39:58;;;;;;;0.50;0.50;;;;;;;32.09;20.34;98460.88;5064004;28;20029;-84
2021/06/10 09:42:31;;;;;;;4.05;0.40;;;;;;;32.67;21.22;98455.47;5066728;28;20040;-84
2021/06/10 09:44:59;;;;;;;0.40;0.40;;;;;;;32.88;20.33;98447.13;5055688;28;20029;-83
2021/06/10 09:47:40;;;;;;;0.70;0.40;;;;;;;34.03;18.88;98444.94;5062446;28;20052;-84
2021/06/10 09:50:21;;;;;;;1.30;0.50;;;;;;;35.20;17.94;98442.47;5064929;28;20029;-84
2021/06/10 09:53:12;;;;;;;1.05;0.50;;;;;;;34.74;17.60;98447.31;5063044;28;20047;-84
2021/06/10 09:55:52;;;;;;;0.60;0.50;;;;;;;34.80;17.74;98444.53;5059549;28;20385;-83
2021/06/10 09:58:22;;;;;;;0.27;0.27;;;;;;;36.27;16.54;98445.03;5064402;28;20403;-84
2021/06/10 10:00:52;;;;;;;0.80;0.35;;;;;;;36.36;17.29;98439.88;5068758;28;20459;-84
2021/06/10 10:03:25;;;;;;;0.30;0.30;;;;;;;36.66;17.05;98446.88;5068276;28;20446;-84
2021/06/10 10:05:58;;;;;;;0.73;0.40;;;;;;;34.97;17.28;98452.00;5059045;28;20033;-83
2021/06/10 10:08:27;;;;;;;0.30;0.30;;;;;;;34.70;17.49;98438.19;5063485;28;20036;-84
2021/06/10 10:10:57;;;;;;;0.45;0.30;;;;;;;35.09;16.52;98438.69;5067927;28;20459;-84
2021/06/10 10:13:25;;;;;;;2.72;0.40;;;;;;;34.45;18.17;98439.63;5055315;28;20040;-83
2021/06/10 10:15:51;;;;;;;0.30;0.30;;;;;;;34.70;18.43;98436.09;5057078;28;20032;-84
2021/06/10 10:18:20;;;;;;;0.30;0.30;;;;;;;33.83;17.91;98431.41;5056847;28;20116;-85
2021/06/10 10:20:47;;;;;;;0.30;0.22;;;;;;;33.36;18.18;98435.19;5064633;28;20044;-84
2021/06/10 10:23:14;;;;;;;1.23;0.38;;;;;;;34.20;18.64;98422.41;5068556;28;20228;-84
2021/06/10 10:25:41;;;;;;;1.13;0.50;;;;;;;33.85;18.19;98423.13;5056476;28;20068;-84
2021/06/10 10:28:14;;;;;;;0.52;0.38;;;;;;;33.66;18.46;98418.91;5058800;28;20499;-84
2021/06/10 10:30:44;;;;;;;0.40;0.30;;;;;;;34.01;18.29;98414.06;5071515;28;20065;-84
2021/06/10 10:33:19;;;;;;;0.55;0.50;;;;;;;34.54;18.67;98410.22;5061840;28;20518;-84
2021/06/10 10:36:01;;;;;;;0.30;0.30;;;;;;;34.68;16.55;98421.56;5063266;28;20032;-83
2021/06/10 10:38:39;;;;;;;0.52;0.43;;;;;;;34.23;17.37;98412.88;5064846;28;20028;-84
2021/06/10 10:41:15;;;;;;;0.30;0.30;;;;;;;34.70;17.51;98410.44;5063680;28;20033;-83
2021/06/10 10:43:42;;;;;;;1.02;0.40;;;;;;;33.44;18.45;98422.13;5059637;28;20051;-84
2021/06/10 10:46:16;;;;;;;0.70;0.47;;;;;;;31.83;20.44;98414.22;5059147;28;20029;-84
2021/06/10 10:48:44;;;;;;;0.50;0.25;;;;;;;32.26;19.70;98410.06;5064629;28;20388;-84
2021/06/10 10:51:23;;;;;;;0.60;0.50;;;;;;;31.51;20.59;98407.22;5063902;28;20082;-83
2021/06/10 10:53:55;;;;;;;0.40;0.40;;;;;;;31.75;20.62;98410.94;5065450;28;20033;-84
2021/06/10 10:56:37;;;;;;;0.40;0.40;;;;;;;32.71;19.08;98412.66;5063796;28;20056;-84
2021/06/10 10:59:20;;;;;;;0.88;0.40;;;;;;;32.36;19.45;98417.28;5065883;28;20045;-84
2021/06/10 11:02:13;;;;;;;0.25;0.25;;;;;;;32.23;18.51;98408.22;5064233;28;20037;-84
2021/06/10 11:04:55;;;;;;;0.40;0.40;;;;;;;33.15;18.00;98399.34;5056382;28;20033;-85
2021/06/10 11:07:36;;;;;;;0.60;0.50;;;;;;;35.12;16.69;98389.97;5061589;28;20029;-85
2021/06/10 11:10:10;;;;;;;0.52;0.40;;;;;;;34.25;17.76;98387.50;5062850;28;20039;-83
2021/06/10 11:12:42;;;;;;;0.40;0.40;;;;;;;34.05;16.97;98396.81;5064133;28;20029;-84
2021/06/10 11:15:24;;;;;;;0.30;0.30;;;;;;;35.37;15.89;98386.31;5061544;28;20166;-85
2021/06/10 11:17:57;;;;;;;1.00;0.30;;;;;;;35.01;16.64;98395.50;5066041;28;20032;-85
2021/06/10 11:20:38;;;;;;;0.40;0.40;;;;;;;35.26;16.61;98385.41;5073683;28;20045;-84
2021/06/10 11:23:18;;;;;;;1.83;0.30;;;;;;;35.13;17.63;98373.59;5064637;28;20037;-84
2021/06/10 11:25:45;;;;;;;0.90;0.50;;;;;;;34.35;17.57;98366.13;5070216;28;20040;-84
2021/06/10 11:28:14;;;;;;;0.30;0.30;;;;;;;33.75;18.59;98370.38;5070491;28;20108;-84
2021/06/10 11:30:40;;;;;;;0.70;0.30;;;;;;;34.74;16.17;98362.50;5072382;28;20036;-84
2021/06/10 11:33:06;;;;;;;0.40;0.40;;;;;;;33.67;17.51;98374.16;5066997;28;20102;-84
2021/06/10 11:35:45;;;;;;;0.40;0.40;;;;;;;33.39;18.18;98368.75;5070442;28;20029;-84
2021/06/10 11:38:15;;;;;;;0.20;0.20;;;;;;;34.30;17.97;98366.84;5072447;28;20101;-84
2021/06/10 11:40:44;;;;;;;0.52;0.40;;;;;;;35.09;16.69;98359.56;5063846;28;20498;-84
2021/06/10 11:43:12;;;;;;;0.20;0.20;;;;;;;36.78;15.77;98355.34;5067809;28;20116;-84